createdAt,value
2023-03-02T00:02:28.609Z,2.60
2023-03-02T00:07:34.783Z,2.57
2023-03-02T00:12:36.840Z,2.47
2023-03-02T00:17:48.044Z,3.33
2023-03-02T00:22:50.234Z,2.87
2023-03-02T00:27:52.640Z,2.50
2023-03-02T00:32:55.708Z,2.07
2023-03-02T00:37:58.742Z,2.47
2023-03-02T00:43:00.965Z,2.60
2023-03-02T00:48:04.493Z,2.17
2023-03-02T00:53:07.043Z,2.20
2023-03-02T00:58:09.210Z,2.90
2023-03-02T01:03:12.672Z,2.30
2023-03-02T01:08:15.378Z,2.27
2023-03-02T01:13:17.477Z,2.40
2023-03-02T01:18:20.965Z,1.90
2023-03-02T01:23:23.045Z,2.17
2023-03-02T01:28:25.256Z,2.30
2023-03-02T01:33:28.345Z,2.07
2023-03-02T01:38:30.582Z,2.27
2023-03-02T01:43:32.923Z,2.80
2023-03-02T01:48:42.788Z,2.90
2023-03-02T01:53:46.430Z,3.30
2023-03-02T01:58:51.375Z,3.07
2023-03-02T02:03:55.424Z,2.97
2023-03-02T02:08:59.502Z,3.10
2023-03-02T02:14:04.110Z,2.57
2023-03-02T02:19:15.904Z,3.27
2023-03-02T02:24:25.235Z,2.13
2023-03-02T02:29:32.724Z,3.13
2023-03-02T02:34:41.028Z,3.17
2023-03-02T02:39:46.879Z,2.83
2023-03-02T02:44:57.334Z,2.43
2023-03-02T02:49:59.364Z,2.97
2023-03-02T02:55:02.452Z,3.30
2023-03-02T03:00:07.818Z,3.33
2023-03-02T03:05:14.462Z,3.10
2023-03-02T03:10:23.220Z,3.37
2023-03-02T03:15:27.171Z,3.40
2023-03-02T03:20:29.669Z,3.00
2023-03-02T03:25:31.515Z,2.73
2023-03-02T03:30:35.288Z,2.87
2023-03-02T03:35:37.201Z,3.00
2023-03-02T03:40:39.326Z,3.43
2023-03-02T03:45:42.949Z,3.00
2023-03-02T03:50:45.222Z,2.90
2023-03-02T03:55:47.404Z,2.80
2023-03-02T04:00:50.561Z,2.60
2023-03-02T04:05:55.903Z,2.97
2023-03-02T04:10:58.205Z,3.70
2023-03-02T04:16:01.946Z,2.47
2023-03-02T04:21:04.594Z,2.87
2023-03-02T04:26:06.759Z,2.60
2023-03-02T04:31:10.366Z,3.17
2023-03-02T04:36:12.814Z,3.23
2023-03-02T04:41:17.311Z,3.13
2023-03-02T04:46:23.106Z,2.53
2023-03-02T04:51:27.685Z,2.67
2023-03-02T04:56:30.624Z,2.50
2023-03-02T05:01:34.344Z,3.13
2023-03-02T05:06:36.297Z,2.90
2023-03-02T05:11:38.946Z,3.07
2023-03-02T05:16:42.835Z,3.37
2023-03-02T05:21:45.603Z,2.57
2023-03-02T05:26:47.639Z,2.83
2023-03-02T05:31:51.769Z,3.43
2023-03-02T05:36:53.714Z,3.90
2023-03-02T05:41:55.875Z,3.27
2023-03-02T05:47:02.245Z,3.20
2023-03-02T05:52:04.445Z,3.00
2023-03-02T05:57:06.562Z,3.67
2023-03-02T06:02:10.090Z,2.90
2023-03-02T06:07:12.832Z,3.97
2023-03-02T06:12:15.350Z,3.83
2023-03-02T06:17:18.943Z,3.20
2023-03-02T06:22:21.129Z,3.33
2023-03-02T06:27:23.249Z,3.93
2023-03-02T06:32:29.409Z,4.47
2023-03-02T06:37:32.379Z,3.87
2023-03-02T06:42:34.788Z,4.40
2023-03-02T06:47:38.488Z,4.17
2023-03-02T06:52:40.941Z,3.93
2023-03-02T06:57:43.158Z,4.87
2023-03-02T07:02:49.141Z,4.07
2023-03-02T07:07:58.731Z,4.70
2023-03-02T07:13:02.060Z,4.23
2023-03-02T07:18:05.409Z,5.23
2023-03-02T07:23:07.582Z,7.70
2023-03-02T07:28:09.708Z,9.87
2023-03-02T07:33:13.232Z,10.60
2023-03-02T07:38:15.518Z,10.43
2023-03-02T07:43:17.860Z,9.90
2023-03-02T07:48:21.070Z,10.43
2023-03-02T07:53:23.229Z,10.27
2023-03-02T07:58:25.082Z,11.37
2023-03-02T08:03:31.018Z,11.27
2023-03-02T08:08:32.776Z,12.57
2023-03-02T08:13:35.281Z,11.23
2023-03-02T08:18:39.086Z,13.10
2023-03-02T08:23:41.838Z,13.83
2023-03-02T08:28:45.961Z,12.23
2023-03-02T08:33:49.271Z,11.97
2023-03-02T08:38:51.958Z,12.37
2023-03-02T08:43:54.221Z,12.40
2023-03-02T08:48:57.784Z,12.83
2023-03-02T08:54:01.453Z,10.63
2023-03-02T08:59:08.119Z,11.97
2023-03-02T09:04:11.414Z,10.60
2023-03-02T09:09:14.857Z,12.67
2023-03-02T09:14:16.920Z,13.20
2023-03-02T09:19:20.678Z,12.97
2023-03-02T09:24:22.741Z,13.00
2023-03-02T09:29:24.807Z,13.13
2023-03-02T09:34:28.095Z,14.47
2023-03-02T09:39:29.882Z,12.60
2023-03-02T09:44:45.510Z,13.70
2023-03-02T09:49:57.966Z,12.63
2023-03-02T09:55:11.675Z,13.53
2023-03-02T10:00:19.813Z,13.03
2023-03-02T10:05:27.161Z,12.93
2023-03-02T10:10:37.412Z,10.93
2023-03-02T10:15:46.799Z,12.57
2023-03-02T10:20:54.373Z,10.47
2023-03-02T10:26:11.155Z,11.10
2023-03-02T10:31:23.451Z,11.93
2023-03-02T10:36:28.373Z,10.37
2023-03-02T10:41:35.614Z,10.60
2023-03-02T10:46:42.385Z,12.10
2023-03-02T10:51:54.392Z,11.97
2023-03-02T10:56:59.836Z,12.00
2023-03-02T11:02:03.707Z,11.03
2023-03-02T11:07:17.019Z,12.30
2023-03-02T11:12:19.303Z,10.87
2023-03-02T11:17:31.614Z,12.77
2023-03-02T11:22:40.618Z,12.57
2023-03-02T11:27:44.428Z,11.97
2023-03-02T11:32:54.232Z,11.30
2023-03-02T11:38:10.105Z,11.67
2023-03-02T11:43:12.767Z,14.53
2023-03-02T11:48:22.151Z,13.27
2023-03-02T11:53:33.163Z,12.27
2023-03-02T11:58:36.758Z,12.70
2023-03-02T12:03:40.901Z,13.03
2023-03-02T12:08:46.629Z,13.47
2023-03-02T12:14:00.386Z,13.83
2023-03-02T12:19:24.155Z,12.60
2023-03-02T12:24:29.720Z,13.60
2023-03-02T12:29:39.618Z,13.53
2023-03-02T12:34:45.415Z,13.60
2023-03-02T12:40:17.498Z,13.07
2023-03-02T12:45:32.150Z,11.73
2023-03-02T12:50:38.448Z,12.43
2023-03-02T12:55:41.681Z,12.37
2023-03-02T13:00:52.152Z,12.07
2023-03-02T13:06:01.344Z,11.93
2023-03-02T13:11:08.012Z,11.83
2023-03-02T13:16:20.705Z,12.40
2023-03-02T13:21:30.543Z,10.93
2023-03-02T13:26:36.001Z,11.23
2023-03-02T13:31:38.697Z,11.93
2023-03-02T13:36:41.864Z,10.40
2023-03-02T13:41:54.232Z,9.93
2023-03-02T13:46:56.693Z,9.47
2023-03-02T13:52:03.292Z,9.03
2023-03-02T13:57:07.299Z,9.07
2023-03-02T14:02:22.809Z,8.73
2023-03-02T14:07:24.803Z,9.30
2023-03-02T14:12:31.197Z,8.67
2023-03-02T14:17:33.572Z,7.90
2023-03-02T14:22:35.742Z,8.47
2023-03-02T14:27:40.134Z,7.93
2023-03-02T14:32:42.021Z,8.97
2023-03-02T14:37:48.577Z,8.73
2023-03-02T14:42:52.080Z,9.37
2023-03-02T14:47:54.125Z,8.23
2023-03-02T14:52:58.446Z,9.00
2023-03-02T14:58:05.114Z,8.33
2023-03-02T15:03:07.087Z,9.23
2023-03-02T15:08:12.816Z,9.90
2023-03-02T15:13:16.540Z,9.03
2023-03-02T15:18:18.668Z,9.00
2023-03-02T15:23:30.228Z,9.23
2023-03-02T15:28:33.331Z,8.70
2023-03-02T15:33:35.634Z,8.60
2023-03-02T15:38:37.404Z,8.00
2023-03-02T15:43:40.875Z,7.80
2023-03-02T15:48:45.607Z,7.67
2023-03-02T15:53:56.275Z,7.23
2023-03-02T15:58:59.626Z,6.37
2023-03-02T16:04:01.872Z,6.80
2023-03-02T16:09:04.809Z,7.70
2023-03-02T16:14:08.875Z,7.23
2023-03-02T16:19:12.560Z,7.57
2023-03-02T16:24:15.710Z,7.73
2023-03-02T16:29:23.200Z,7.07
2023-03-02T16:34:25.262Z,7.13
2023-03-02T16:39:34.473Z,7.27
2023-03-02T16:44:49.319Z,7.83
2023-03-02T16:49:55.104Z,8.63
2023-03-02T16:54:57.216Z,8.27
2023-03-02T17:00:01.053Z,8.77
2023-03-02T17:05:03.306Z,9.60
2023-03-02T17:10:06.599Z,8.80
2023-03-02T17:15:13.411Z,10.33
2023-03-02T17:20:17.610Z,10.77
2023-03-02T17:25:20.137Z,9.90
2023-03-02T17:30:23.807Z,10.77
2023-03-02T17:35:26.470Z,9.83
2023-03-02T17:40:31.532Z,10.40
2023-03-02T17:45:37.188Z,11.03
2023-03-02T17:50:39.425Z,10.90
2023-03-02T17:55:41.205Z,11.20
2023-03-02T18:00:44.732Z,10.87
2023-03-02T18:05:49.181Z,10.47
2023-03-02T18:10:51.140Z,10.17
2023-03-02T18:15:54.308Z,11.33
2023-03-02T18:20:59.595Z,11.17
2023-03-02T18:26:01.946Z,9.37
2023-03-02T18:31:07.029Z,9.90
2023-03-02T18:36:09.598Z,10.17
2023-03-02T18:41:13.074Z,9.87
2023-03-02T18:46:22.698Z,10.13
2023-03-02T18:51:25.396Z,8.27
2023-03-02T18:56:27.514Z,8.80
2023-03-02T19:01:32.119Z,7.60
2023-03-02T19:06:34.225Z,10.03
2023-03-02T19:11:36.344Z,9.07
2023-03-02T19:16:39.523Z,9.43
2023-03-02T19:21:42.437Z,8.30
2023-03-02T19:26:47.665Z,8.83
2023-03-02T19:31:50.822Z,7.97
2023-03-02T19:36:53.033Z,7.67
2023-03-02T19:41:54.962Z,7.47
2023-03-02T19:46:58.760Z,9.33
2023-03-02T19:52:00.509Z,8.37
2023-03-02T19:57:03.087Z,7.47
2023-03-02T20:02:06.437Z,8.00
2023-03-02T20:07:08.573Z,7.97
2023-03-02T20:12:10.355Z,7.40
2023-03-02T20:17:13.893Z,6.97
2023-03-02T20:22:17.459Z,7.17
2023-03-02T20:27:20.321Z,6.00
2023-03-02T20:32:23.644Z,6.47
2023-03-02T20:37:26.401Z,7.53
2023-03-02T20:42:29.324Z,7.00
2023-03-02T20:47:32.754Z,7.07
2023-03-02T20:52:34.783Z,6.97
2023-03-02T20:57:36.654Z,9.60
2023-03-02T21:02:40.237Z,9.30
2023-03-02T21:07:42.714Z,8.07
2023-03-02T21:12:45.278Z,7.00
2023-03-02T21:17:48.805Z,6.13
2023-03-02T21:22:50.627Z,7.03
2023-03-02T21:27:53.053Z,6.93
2023-03-02T21:32:56.751Z,6.30
2023-03-02T21:37:59.881Z,6.00
2023-03-02T21:43:02.825Z,6.87
2023-03-02T21:48:07.368Z,5.87
2023-03-02T21:53:09.642Z,6.20
2023-03-02T21:58:12.284Z,5.43
2023-03-02T22:03:15.452Z,5.03
2023-03-02T22:08:19.600Z,4.57
2023-03-02T22:13:23.634Z,4.93
2023-03-02T22:18:28.012Z,4.63
2023-03-02T22:23:31.695Z,5.43
2023-03-02T22:28:34.262Z,5.70
2023-03-02T22:33:37.850Z,4.97
2023-03-02T22:38:40.020Z,4.80
2023-03-02T22:43:42.962Z,4.47
2023-03-02T22:48:48.527Z,4.80
2023-03-02T22:53:52.761Z,4.73
2023-03-02T22:58:55.711Z,5.10
2023-03-02T23:04:12.455Z,4.90
2023-03-02T23:09:17.117Z,5.20
2023-03-02T23:14:25.617Z,5.17
2023-03-02T23:19:31.129Z,5.80
2023-03-02T23:24:32.896Z,6.67
2023-03-02T23:29:35.360Z,6.23
2023-03-02T23:34:39.093Z,5.80
2023-03-02T23:39:41.104Z,6.50
2023-03-02T23:44:43.327Z,5.97
2023-03-02T23:49:46.909Z,5.10
2023-03-02T23:54:52.224Z,5.07
2023-03-02T23:59:54.387Z,5.30
